Terminal Aerodrome Forecast
Issued by NWS St Louis, MO

Home | Current Version | Previous Version | Text Only | Print | Product List | Glossary On
Versions: 1 2 3 4 5 6 7 8 9 10 11 12 13
000
FTUS43 KLSX 260530
TAFCOU
TAF
KCOU 260530Z 2606/2706 16005KT P6SM SCT250
     FM261500 22005KT P6SM SCT120
     FM261900 26006KT P6SM BKN060
     FM262100 29006KT P6SM BKN060
     FM270000 33004KT P6SM BKN060=

USA.gov is the U.S. government's official web portal to all federal, state and local government web resources and services.